»·PEaware :: N799DS KOXR-KSMO

N799DS :: KOXR-KSMO

FLIGHT INFORMATION

Flight Status: Arrived
Operator: Privately registered:
United States
More flights under this callsign
Pilot: Wolfgang B. (15069)
Aircraft: CESSNA 172 SKYHAWK
(C172)
More flights by this aircraft type
Origin: KOXR Oxnard
United States
Destination: KSMO Santa Monica Mun
United States
More flights between these airports :: More routes between these airports
Route: VTU044 GINNA V326 VNY V186 DARTS
File this flight plan on PilotEdge
Remarks:
Altitude:
(Current/Filed)
5,000ft
Speed:
(Current/Filed)
120kts
Departed: 25-Sep-18 01:49 PM
Arrived: 25-Sep-18 02:25 PM
Distance/Time
Traveled:
39nm/0:36
Distance/Time
To Go:
Arrived

Flight Plot

Page will automatically refresh every two minutes.


Map Options




Map Legend


Flown Route
Filed Route
Departure Airport
Arrival Airport
Navaid (VOR, NDB)
Fix

Horizontal Profiles

Position Reports

Time Latitude Longitude Heading Altitude Ground
Speed
25-Sep-18 13:21 34.198815 -119.198488 359 43ft 0kts
25-Sep-18 13:22 34.198815 -119.198488 359 43ft 0kts
25-Sep-18 13:23 34.198815 -119.198488 359 43ft 0kts
25-Sep-18 13:24 34.198815 -119.198488 359 43ft 0kts
25-Sep-18 13:25 34.198815 -119.198488 359 43ft 0kts
25-Sep-18 13:26 34.198815 -119.198488 359 43ft 0kts
25-Sep-18 13:27 34.198815 -119.198488 359 43ft 0kts
25-Sep-18 13:28 34.198815 -119.198488 359 43ft 0kts
25-Sep-18 13:29 34.198815 -119.198488 359 43ft 0kts
25-Sep-18 13:30 34.198815 -119.198488 359 43ft 0kts
25-Sep-18 13:31 34.198815 -119.198488 359 43ft 0kts
25-Sep-18 13:32 34.198815 -119.198488 359 43ft 0kts
25-Sep-18 13:33 34.198815 -119.198488 359 43ft 0kts
25-Sep-18 13:34 34.198815 -119.198488 359 43ft 0kts
25-Sep-18 13:35 34.198815 -119.198488 359 43ft 0kts
25-Sep-18 13:36 34.198815 -119.198488 359 43ft 0kts
25-Sep-18 13:37 34.198815 -119.198488 359 43ft 0kts
25-Sep-18 13:38 34.198815 -119.198488 359 43ft 0kts
25-Sep-18 13:39 34.198815 -119.198488 359 43ft 0kts
25-Sep-18 13:40 34.198815 -119.198488 359 43ft 0kts
25-Sep-18 13:41 34.198815 -119.198488 359 43ft 0kts
25-Sep-18 13:42 34.198815 -119.198488 359 43ft 0kts
25-Sep-18 13:43 34.198815 -119.198488 359 43ft 0kts
25-Sep-18 13:44 34.198815 -119.198488 359 43ft 0kts
25-Sep-18 13:45 34.198815 -119.198488 359 43ft 0kts
25-Sep-18 13:46 34.199397 -119.198075 50 43ft 10kts
25-Sep-18 13:47 34.199800 -119.197616 22 43ft 0kts
25-Sep-18 13:48 34.199800 -119.197616 22 43ft 0kts
25-Sep-18 13:49 34.199800 -119.197616 22 43ft 0kts
25-Sep-18 13:50 34.200716 -119.197843 273 43ft 9kts
25-Sep-18 13:51 34.201306 -119.218394 268 692ft 72kts
25-Sep-18 13:52 34.201935 -119.237864 268 1480ft 72kts
25-Sep-18 13:53 34.202518 -119.265825 267 2517ft 73kts
25-Sep-18 13:54 34.201467 -119.285445 212 3213ft 69kts
25-Sep-18 13:55 34.197913 -119.262184 90 4123ft 82kts
25-Sep-18 13:56 34.199038 -119.239397 90 4759ft 82kts
25-Sep-18 13:57 34.201656 -119.199888 88 5007ft 120kts
25-Sep-18 13:58 34.204099 -119.165612 89 4946ft 123kts
25-Sep-18 13:59 34.206721 -119.125319 89 4995ft 121kts
25-Sep-18 14:00 34.208890 -119.084593 88 4993ft 121kts
25-Sep-18 14:01 34.211186 -119.043879 88 4992ft 121kts
25-Sep-18 14:02 34.213506 -119.003177 88 4991ft 121kts
25-Sep-18 14:03 34.215753 -118.962581 88 4991ft 121kts
25-Sep-18 14:04 34.218026 -118.921944 88 4991ft 121kts
25-Sep-18 14:05 34.220318 -118.881225 88 4991ft 121kts
25-Sep-18 14:06 34.222563 -118.841108 88 4991ft 121kts
25-Sep-18 14:07 34.223162 -118.800795 92 5027ft 119kts
25-Sep-18 14:08 34.223242 -118.760454 91 5026ft 121kts
25-Sep-18 14:09 34.223184 -118.712791 95 5024ft 122kts
25-Sep-18 14:10 34.220426 -118.678689 95 5024ft 122kts
25-Sep-18 14:11 34.215472 -118.638114 96 5023ft 121kts
25-Sep-18 14:12 34.210514 -118.598054 97 4558ft 121kts
25-Sep-18 14:13 34.205642 -118.557452 97 3959ft 122kts
25-Sep-18 14:14 34.200904 -118.516948 97 3363ft 122kts
25-Sep-18 14:15 34.196281 -118.476065 97 3022ft 124kts
25-Sep-18 14:16 34.192207 -118.435338 96 3021ft 123kts
25-Sep-18 14:17 34.186591 -118.395928 120 3018ft 121kts
25-Sep-18 14:18 34.169796 -118.360606 121 3001ft 120kts
25-Sep-18 14:19 34.153559 -118.326488 122 2999ft 118kts
25-Sep-18 14:20 34.129540 -118.311995 210 2997ft 116kts
25-Sep-18 14:21 34.104361 -118.335761 219 3015ft 117kts
25-Sep-18 14:22 34.082318 -118.362614 228 2442ft 110kts
25-Sep-18 14:23 34.063854 -118.386479 225 2115ft 90kts
25-Sep-18 14:24 34.046690 -118.408800 225 1786ft 91kts
25-Sep-18 14:25 34.031617 -118.431064 236 1168ft 76kts
25-Sep-18 14:26 34.019133 -118.447384 227 160ft 49kts
25-Sep-18 14:27 34.014985 -118.453178 312 135ft 3kts
25-Sep-18 14:28 34.015168 -118.453265 343 136ft 6kts
25-Sep-18 14:29 34.015449 -118.453498 321 137ft 0kts
25-Sep-18 14:30 34.015449 -118.453498 321 137ft 0kts
25-Sep-18 14:31 34.015449 -118.453498 321 137ft 0kts

Navigation Log

Ident Type
Flight plan parsing failed, navigation log unavailable